Time;durP1;ratioP1;P1;durP2;ratioP2;P2;SDS_P1;SDS_P2;PMS_P1;PMS_P2;Temp;Humidity;BMP_temperature;BMP_pressure;BME280_temperature;BME280_humidity;BME280_pressure;Samples;Min_cycle;Max_cycle;Signal;HPM_P1;HPM_P2
2024/01/23 00:00:35;;;;;;;3.90;1.20;;;9.50;83.80;;;;;;6185499;23;19989;-79
2024/01/23 00:03:00;;;;;;;3.85;1.10;;;9.30;83.70;;;;;;6185776;23;20016;-80
2024/01/23 00:05:26;;;;;;;3.97;1.10;;;9.70;83.90;;;;;;6188640;23;20043;-80
2024/01/23 00:07:51;;;;;;;2.95;0.90;;;9.40;83.70;;;;;;6187461;23;20450;-80
2024/01/23 00:10:19;;;;;;;4.03;1.10;;;9.60;83.90;;;;;;6213906;23;20009;-80
2024/01/23 00:12:45;;;;;;;3.67;1.15;;;9.40;83.70;;;;;;6188115;23;20004;-79
2024/01/23 00:15:10;;;;;;;3.85;1.20;;;9.50;83.80;;;;;;6189467;23;20001;-80
2024/01/23 00:17:36;;;;;;;4.35;1.02;;;9.50;83.80;;;;;;6187660;23;20028;-79
2024/01/23 00:20:04;;;;;;;3.05;1.00;;;9.50;83.80;;;;;;6189547;23;20053;-80
2024/01/23 00:22:30;;;;;;;3.08;1.20;;;9.40;83.70;;;;;;6186517;23;19997;-78
2024/01/23 00:24:55;;;;;;;4.07;1.10;;;10.20;84.20;;;;;;6186675;23;20031;-79
2024/01/23 00:27:21;;;;;;;3.25;1.10;;;9.60;83.80;;;;;;6186096;23;20000;-79
2024/01/23 00:29:46;;;;;;;3.53;1.00;;;9.50;83.80;;;;;;6187562;23;20024;-79
2024/01/23 00:32:12;;;;;;;3.63;1.05;;;9.40;83.70;;;;;;6187616;23;20005;-80
2024/01/23 00:34:38;;;;;;;2.45;1.02;;;9.40;83.70;;;;;;6186695;23;20067;-80
2024/01/23 00:37:03;;;;;;;2.75;1.00;;;9.40;83.70;;;;;;6185052;23;20013;-78
2024/01/23 00:39:30;;;;;;;3.15;0.93;;;9.40;83.70;;;;;;6187439;23;19997;-79
2024/01/23 00:41:55;;;;;;;3.08;0.90;;;9.50;83.80;;;;;;6185596;23;20044;-78
2024/01/23 00:44:21;;;;;;;3.78;1.00;;;9.50;83.80;;;;;;6187171;23;19998;-80
2024/01/23 00:46:46;;;;;;;2.45;0.88;;;9.40;83.70;;;;;;6185069;23;20005;-80
2024/01/23 00:49:12;;;;;;;4.47;1.10;;;9.50;83.80;;;;;;6184592;23;20631;-80
2024/01/23 00:51:37;;;;;;;2.88;0.80;;;9.50;83.80;;;;;;6184929;23;20016;-80
2024/01/23 00:54:03;;;;;;;3.55;1.05;;;9.50;83.80;;;;;;6182773;23;20015;-79
2024/01/23 00:56:29;;;;;;;3.42;1.10;;;9.40;83.70;;;;;;6182462;23;20058;-81
2024/01/23 00:58:54;;;;;;;2.60;1.00;;;9.50;83.80;;;;;;6182565;23;20110;-79
2024/01/23 01:01:20;;;;;;;2.25;0.85;;;9.50;83.80;;;;;;6182051;23;20024;-79
2024/01/23 01:03:46;;;;;;;2.92;0.90;;;9.50;83.80;;;;;;6184195;23;20001;-80
2024/01/23 01:06:11;;;;;;;4.05;0.98;;;9.50;83.80;;;;;;6180313;23;20020;-79
2024/01/23 01:08:37;;;;;;;3.53;1.10;;;9.50;83.80;;;;;;6208206;23;20001;-80
2024/01/23 01:11:02;;;;;;;3.08;0.98;;;9.50;83.80;;;;;;6180284;23;20008;-79
2024/01/23 01:13:29;;;;;;;4.25;0.93;;;9.80;84.00;;;;;;6180625;23;20055;-79
2024/01/23 01:15:54;;;;;;;3.53;0.90;;;9.50;83.80;;;;;;6179424;23;20009;-79
2024/01/23 01:18:20;;;;;;;3.03;0.80;;;9.50;83.80;;;;;;6180831;23;20008;-79
2024/01/23 01:20:48;;;;;;;3.67;1.08;;;9.60;83.90;;;;;;6181181;23;20007;-78
2024/01/23 01:23:13;;;;;;;2.25;0.80;;;9.50;83.80;;;;;;6181791;23;20020;-80
2024/01/23 01:25:43;;;;;;;4.50;1.00;;;9.50;83.80;;;;;;6181249;23;20001;-79
2024/01/23 01:28:08;;;;;;;3.83;1.15;;;9.40;83.70;;;;;;6181774;23;20001;-80
2024/01/23 01:30:34;;;;;;;3.22;1.00;;;9.50;83.80;;;;;;6181962;23;20009;-79
2024/01/23 01:32:59;;;;;;;4.95;1.20;;;9.60;83.90;;;;;;6207194;23;19997;-79
2024/01/23 01:35:25;;;;;;;3.95;1.08;;;9.40;83.70;;;;;;6182372;23;19985;-79
2024/01/23 01:37:50;;;;;;;2.83;0.82;;;9.40;83.70;;;;;;6182090;23;20009;-79
2024/01/23 01:40:16;;;;;;;3.10;0.98;;;9.50;83.80;;;;;;6182091;23;19997;-79
2024/01/23 01:42:42;;;;;;;2.42;0.95;;;9.40;83.70;;;;;;6207889;23;19997;-79
2024/01/23 01:45:10;;;;;;;4.90;1.10;;;9.50;83.80;;;;;;6181783;23;20068;-79
2024/01/23 01:47:36;;;;;;;2.45;0.80;;;9.40;83.80;;;;;;6180975;23;20008;-79
2024/01/23 01:50:02;;;;;;;3.15;1.00;;;9.50;83.80;;;;;;6181137;23;20072;-79
2024/01/23 01:52:30;;;;;;;1.48;0.80;;;9.50;83.90;;;;;;6185174;23;20059;-79
2024/01/23 01:54:56;;;;;;;2.90;0.85;;;9.50;83.80;;;;;;6211646;23;19985;-79
2024/01/23 01:57:22;;;;;;;3.45;1.10;;;9.50;83.90;;;;;;6183563;23;19996;-79
2024/01/23 01:59:48;;;;;;;2.53;1.10;;;9.50;83.90;;;;;;6183876;23;19982;-79
2024/01/23 02:02:14;;;;;;;4.38;1.00;;;9.50;83.90;;;;;;6183082;23;20090;-79
2024/01/23 02:04:40;;;;;;;2.78;0.90;;;9.50;83.80;;;;;;6177306;23;20005;-79
2024/01/23 02:07:06;;;;;;;3.47;0.95;;;9.40;83.80;;;;;;6177371;23;20052;-80
2024/01/23 02:09:31;;;;;;;3.35;1.10;;;9.40;83.80;;;;;;6180130;23;20009;-79
2024/01/23 02:11:58;;;;;;;2.17;0.73;;;9.50;83.90;;;;;;6178474;23;20012;-79
2024/01/23 02:14:23;;;;;;;3.67;1.00;;;9.50;83.80;;;;;;6180459;23;20013;-79
2024/01/23 02:16:49;;;;;;;3.35;0.88;;;9.50;83.90;;;;;;6179894;23;20068;-80
2024/01/23 02:19:15;;;;;;;3.20;1.02;;;9.50;83.80;;;;;;6178444;23;20027;-78
2024/01/23 02:21:41;;;;;;;2.35;0.80;;;9.40;83.80;;;;;;6179357;23;20001;-79
2024/01/23 02:24:07;;;;;;;3.08;0.90;;;9.50;83.80;;;;;;6179545;23;20008;-79
2024/01/23 02:26:32;;;;;;;3.08;1.10;;;10.40;84.30;;;;;;6179301;23;20455;-79
2024/01/23 02:28:58;;;;;;;4.18;1.45;;;9.40;83.80;;;;;;6180290;23;20024;-79
2024/01/23 02:31:23;;;;;;;3.65;1.05;;;9.50;83.90;;;;;;6180489;23;20008;-79
2024/01/23 02:33:49;;;;;;;2.80;1.00;;;9.50;83.90;;;;;;6182104;23;20008;-78
2024/01/23 02:36:15;;;;;;;4.00;0.90;;;9.50;83.90;;;;;;6181798;23;20088;-79
2024/01/23 02:38:41;;;;;;;4.75;1.15;;;9.50;83.90;;;;;;6181005;23;20023;-79
2024/01/23 02:41:06;;;;;;;3.92;1.10;;;9.50;83.80;;;;;;6182464;23;20001;-79
2024/01/23 02:43:32;;;;;;;3.45;0.90;;;9.40;83.80;;;;;;6181696;23;19997;-79
2024/01/23 02:45:57;;;;;;;3.42;1.20;;;9.50;83.90;;;;;;6180491;23;20005;-79
2024/01/23 02:48:23;;;;;;;3.65;1.02;;;9.50;83.80;;;;;;6183226;23;20072;-79
2024/01/23 02:50:48;;;;;;;1.45;0.80;;;9.50;83.90;;;;;;6180492;23;20061;-79
2024/01/23 02:53:14;;;;;;;3.30;1.00;;;9.50;84.40;;;;;;6181207;23;20004;-79
2024/01/23 02:55:40;;;;;;;5.13;1.17;;;9.50;84.40;;;;;;6182106;23;20448;-79
2024/01/23 02:58:05;;;;;;;2.88;0.77;;;9.50;83.90;;;;;;6181038;23;20016;-80
2024/01/23 03:00:32;;;;;;;3.13;1.00;;;9.50;83.90;;;;;;6181308;23;20001;-79
2024/01/23 03:02:58;;;;;;;3.45;1.20;;;9.60;83.90;;;;;;6180755;23;20001;-79
2024/01/23 03:05:24;;;;;;;2.88;0.80;;;9.50;83.90;;;;;;6181182;23;20009;-79
2024/01/23 03:07:50;;;;;;;3.95;1.20;;;9.50;83.90;;;;;;6180347;23;20009;-79
2024/01/23 03:10:16;;;;;;;3.83;1.00;;;9.50;83.90;;;;;;6180207;23;20116;-80
2024/01/23 03:12:41;;;;;;;2.42;0.80;;;9.50;83.90;;;;;;6180871;23;20012;-79
2024/01/23 03:15:07;;;;;;;2.67;0.93;;;9.50;83.90;;;;;;6181844;23;19997;-79
2024/01/23 03:17:33;;;;;;;1.75;0.70;;;9.50;83.80;;;;;;6180207;23;20009;-79
2024/01/23 03:19:59;;;;;;;3.47;1.00;;;9.50;83.90;;;;;;6206680;23;19997;-80
2024/01/23 03:22:25;;;;;;;2.08;0.85;;;9.50;83.80;;;;;;6178301;23;20059;-79
2024/01/23 03:24:50;;;;;;;3.55;0.85;;;9.50;83.90;;;;;;6176588;23;20012;-79
2024/01/23 03:27:16;;;;;;;3.20;0.82;;;9.50;83.90;;;;;;6206652;23;20012;-79
2024/01/23 03:29:43;;;;;;;4.07;1.15;;;9.50;83.90;;;;;;6182164;23;19993;-79
2024/01/23 03:32:10;;;;;;;3.90;1.15;;;9.50;83.90;;;;;;6183229;23;20005;-79
2024/01/23 03:34:37;;;;;;;2.53;0.82;;;9.50;83.90;;;;;;6183776;23;19989;-79
2024/01/23 03:37:03;;;;;;;3.25;1.17;;;9.50;83.90;;;;;;6176797;23;20008;-80
2024/01/23 03:39:29;;;;;;;2.67;1.05;;;9.50;83.90;;;;;;6181207;23;20005;-79
2024/01/23 03:41:55;;;;;;;2.80;0.75;;;9.50;83.90;;;;;;6181569;23;20003;-79
2024/01/23 03:44:21;;;;;;;4.30;1.00;;;9.50;83.90;;;;;;6178616;23;20504;-79
2024/01/23 03:46:47;;;;;;;3.42;1.02;;;9.50;83.90;;;;;;6180076;23;20016;-80
2024/01/23 03:49:13;;;;;;;3.65;0.85;;;9.50;83.90;;;;;;6183619;23;20096;-79
2024/01/23 03:51:39;;;;;;;4.10;1.17;;;9.50;83.90;;;;;;6183349;23;19996;-79
2024/01/23 03:54:04;;;;;;;4.03;0.90;;;9.50;83.90;;;;;;6183459;23;20005;-79
2024/01/23 03:56:30;;;;;;;3.15;0.90;;;10.80;84.60;;;;;;6183320;23;20176;-78
2024/01/23 03:58:55;;;;;;;3.45;1.00;;;9.50;83.90;;;;;;6185141;23;20020;-79
2024/01/23 04:01:21;;;;;;;1.52;0.75;;;9.50;84.40;;;;;;6183501;23;19997;-79
2024/01/23 04:03:46;;;;;;;3.45;0.80;;;9.50;83.90;;;;;;6184001;23;20020;-79
2024/01/23 04:06:12;;;;;;;3.05;0.90;;;9.50;83.90;;;;;;6180824;23;20005;-79
2024/01/23 04:08:37;;;;;;;2.88;1.10;;;9.50;83.90;;;;;;6182850;23;19997;-79
2024/01/23 04:11:03;;;;;;;3.63;0.88;;;9.50;83.90;;;;;;6181732;23;20002;-80
2024/01/23 04:13:28;;;;;;;3.15;0.90;;;9.50;83.90;;;;;;6184145;23;20009;-78
2024/01/23 04:15:54;;;;;;;2.47;0.90;;;9.50;83.90;;;;;;6183746;23;20069;-80
2024/01/23 04:18:19;;;;;;;2.90;0.90;;;9.50;83.90;;;;;;6184553;23;20001;-80
2024/01/23 04:20:45;;;;;;;2.15;1.02;;;9.50;83.90;;;;;;6184913;23;20033;-79
2024/01/23 04:23:10;;;;;;;2.83;0.80;;;9.40;83.80;;;;;;6185273;23;20001;-79
2024/01/23 04:25:36;;;;;;;3.88;0.98;;;9.50;83.90;;;;;;6186315;23;20001;-79
2024/01/23 04:28:01;;;;;;;2.72;0.80;;;9.50;83.90;;;;;;6210384;23;19990;-79
2024/01/23 04:30:27;;;;;;;2.05;0.75;;;9.40;83.80;;;;;;6184757;23;19996;-79
2024/01/23 04:32:53;;;;;;;4.03;1.20;;;9.50;83.90;;;;;;6185103;23;20006;-79
2024/01/23 04:35:18;;;;;;;2.25;0.90;;;9.50;83.90;;;;;;6210745;23;20048;-80
2024/01/23 04:37:44;;;;;;;3.92;0.80;;;9.50;84.00;;;;;;6183963;23;20013;-79
2024/01/23 04:40:10;;;;;;;2.13;0.70;;;9.50;83.90;;;;;;6184779;23;20012;-80
2024/01/23 04:42:35;;;;;;;4.55;1.10;;;9.40;83.90;;;;;;6184817;23;20008;-79
2024/01/23 04:45:03;;;;;;;2.72;0.77;;;9.50;84.00;;;;;;6209738;23;20020;-79
2024/01/23 04:47:28;;;;;;;3.50;1.00;;;9.50;83.90;;;;;;6183856;23;20057;-80
2024/01/23 04:49:55;;;;;;;3.38;1.00;;;9.50;83.90;;;;;;6182092;23;20344;-79
2024/01/23 04:52:21;;;;;;;3.50;1.10;;;9.60;84.00;;;;;;6164240;23;20009;-78
2024/01/23 04:54:47;;;;;;;3.03;1.00;;;9.60;84.00;;;;;;6196518;23;20007;-80
2024/01/23 04:57:14;;;;;;;4.03;0.90;;;9.50;84.00;;;;;;6172454;23;20016;-78
2024/01/23 04:59:40;;;;;;;3.75;1.10;;;9.90;84.10;;;;;;6163632;23;20044;-79
2024/01/23 05:02:06;;;;;;;2.78;0.90;;;9.50;84.00;;;;;;6162466;23;20005;-78
2024/01/23 05:04:31;;;;;;;3.30;0.90;;;9.50;83.90;;;;;;6167832;23;20024;-79
2024/01/23 05:06:57;;;;;;;3.00;1.00;;;9.50;83.90;;;;;;6164521;23;20392;-79
2024/01/23 05:09:22;;;;;;;3.35;0.80;;;9.50;83.90;;;;;;6191340;23;20214;-78
2024/01/23 05:11:48;;;;;;;3.45;1.00;;;9.50;83.90;;;;;;6163298;23;20009;-78
2024/01/23 05:14:17;;;;;;;2.38;0.95;;;9.50;83.90;;;;;;6161162;23;20015;-79
2024/01/23 05:16:43;;;;;;;3.10;0.80;;;9.50;83.90;;;;;;6162043;23;20009;-78
2024/01/23 05:19:09;;;;;;;4.40;1.00;;;9.60;84.00;;;;;;6161330;23;20005;-79
2024/01/23 05:21:35;;;;;;;2.95;0.90;;;9.50;84.00;;;;;;6161742;23;20002;-78
2024/01/23 05:24:02;;;;;;;4.03;1.00;;;9.50;83.90;;;;;;6161454;23;20016;-78
2024/01/23 05:26:28;;;;;;;4.63;1.20;;;9.90;84.10;;;;;;6158875;23;20333;-78
2024/01/23 05:28:54;;;;;;;3.33;1.10;;;9.50;83.90;;;;;;6158581;23;20036;-78
2024/01/23 05:31:19;;;;;;;3.95;1.00;;;9.50;84.00;;;;;;6163251;23;20088;-78
2024/01/23 05:33:46;;;;;;;3.33;0.88;;;9.50;84.00;;;;;;6178162;23;20615;-78
2024/01/23 05:36:12;;;;;;;2.20;0.82;;;9.50;84.00;;;;;;6175798;23;20005;-80
2024/01/23 05:38:38;;;;;;;2.58;0.73;;;9.50;84.00;;;;;;6178692;23;20031;-80
2024/01/23 05:41:03;;;;;;;4.05;1.05;;;9.50;84.00;;;;;;6182394;23;20012;-79
2024/01/23 05:43:29;;;;;;;2.95;0.98;;;9.30;83.90;;;;;;6173012;23;20001;-79
2024/01/23 05:45:55;;;;;;;4.47;1.13;;;9.50;84.00;;;;;;6169109;23;20009;-79
2024/01/23 05:48:20;;;;;;;3.47;0.90;;;10.30;84.40;;;;;;6165970;23;20344;-79
2024/01/23 05:50:46;;;;;;;3.17;1.00;;;9.50;84.00;;;;;;6167054;23;20025;-78
2024/01/23 05:53:11;;;;;;;3.20;0.90;;;9.30;83.90;;;;;;6176730;23;20005;-80
2024/01/23 05:55:37;;;;;;;2.78;0.80;;;9.50;84.00;;;;;;6173983;23;20026;-79
2024/01/23 05:58:03;;;;;;;3.55;1.10;;;9.70;84.10;;;;;;6174485;23;20001;-79
2024/01/23 06:00:29;;;;;;;4.03;1.13;;;9.50;84.00;;;;;;6174154;23;20009;-78
2024/01/23 06:02:54;;;;;;;2.83;1.05;;;9.50;84.00;;;;;;6201598;23;20003;-79
2024/01/23 06:05:20;;;;;;;2.75;0.80;;;9.60;84.10;;;;;;6175053;23;20001;-79
2024/01/23 06:07:49;;;;;;;3.13;1.05;;;9.70;84.10;;;;;;6173144;23;20005;-78
2024/01/23 06:10:18;;;;;;;3.15;1.02;;;9.60;84.10;;;;;;6174004;23;20028;-79
2024/01/23 06:12:44;;;;;;;6.97;1.10;;;9.50;84.00;;;;;;6173653;23;20005;-79
2024/01/23 06:15:10;;;;;;;2.95;0.82;;;9.50;84.00;;;;;;6192408;23;20009;-78
2024/01/23 06:17:36;;;;;;;2.92;0.90;;;9.50;84.00;;;;;;6162934;23;20008;-78
2024/01/23 06:20:07;;;;;;;4.53;1.15;;;9.60;84.00;;;;;;6165643;23;20024;-79
2024/01/23 06:22:33;;;;;;;3.85;1.00;;;9.50;84.00;;;;;;6163562;23;20138;-79
2024/01/23 06:25:07;;;;;;;6.97;1.38;;;9.50;84.00;;;;;;6161279;23;20012;-78
2024/01/23 06:27:33;;;;;;;3.20;0.90;;;9.50;84.00;;;;;;6182497;23;20005;-77
2024/01/23 06:29:59;;;;;;;5.80;1.10;;;9.50;84.00;;;;;;6155975;23;20009;-78
2024/01/23 06:32:25;;;;;;;3.83;0.95;;;9.50;84.00;;;;;;6158907;23;20083;-78
2024/01/23 06:34:53;;;;;;;4.95;1.02;;;9.50;84.00;;;;;;6159509;23;20012;-78
2024/01/23 06:37:20;;;;;;;3.10;1.00;;;9.50;83.90;;;;;;6158250;23;20004;-78
2024/01/23 06:39:46;;;;;;;5.18;1.20;;;9.50;83.90;;;;;;6158961;23;20100;-78
2024/01/23 06:42:11;;;;;;;6.20;1.10;;;9.50;83.90;;;;;;6158139;23;20009;-78
2024/01/23 06:44:37;;;;;;;5.15;1.10;;;9.50;83.90;;;;;;6158506;23;20485;-80
2024/01/23 06:47:03;;;;;;;8.10;1.50;;;9.50;83.90;;;;;;6158516;23;20012;-78
2024/01/23 06:49:29;;;;;;;5.25;1.42;;;9.50;83.90;;;;;;6158389;23;20009;-78
2024/01/23 06:51:54;;;;;;;3.63;1.08;;;9.50;83.90;;;;;;6158266;23;20051;-78
2024/01/23 06:54:20;;;;;;;5.18;1.08;;;9.50;83.90;;;;;;6158504;23;20528;-80
2024/01/23 06:56:46;;;;;;;4.88;1.00;;;9.50;83.90;;;;;;6158382;23;20016;-78
2024/01/23 06:59:12;;;;;;;5.18;1.23;;;9.50;84.00;;;;;;6158424;23;20001;-79
2024/01/23 07:01:38;;;;;;;3.67;1.10;;;9.50;83.90;;;;;;6158532;23;20028;-78
2024/01/23 07:04:04;;;;;;;9.65;1.55;;;9.50;84.00;;;;;;6158454;23;20012;-77
2024/01/23 07:06:29;;;;;;;6.03;1.23;;;9.50;84.00;;;;;;6158116;23;20507;-79
2024/01/23 07:08:55;;;;;;;8.05;1.38;;;9.50;84.00;;;;;;6158278;23;20008;-78
2024/01/23 07:11:20;;;;;;;5.95;1.08;;;9.50;84.00;;;;;;6158239;23;20376;-78
2024/01/23 07:13:47;;;;;;;7.43;1.67;;;9.50;84.00;;;;;;6184253;23;20005;-79
2024/01/23 07:16:12;;;;;;;4.38;1.02;;;9.50;84.00;;;;;;6158516;23;20005;-78
2024/01/23 07:18:38;;;;;;;9.38;1.35;;;9.40;84.00;;;;;;6184970;23;20028;-78
2024/01/23 07:21:04;;;;;;;5.28;1.10;;;9.50;84.00;;;;;;6158317;23;20440;-78
2024/01/23 07:23:29;;;;;;;6.18;1.08;;;9.50;84.00;;;;;;6158211;23;20005;-78
2024/01/23 07:25:55;;;;;;;6.00;1.05;;;9.50;84.10;;;;;;6158459;23;20096;-78
2024/01/23 07:28:20;;;;;;;3.65;1.13;;;9.40;84.00;;;;;;6158637;23;20092;-78
2024/01/23 07:30:46;;;;;;;4.45;1.00;;;9.50;84.00;;;;;;6184528;23;20440;-78
2024/01/23 07:33:12;;;;;;;4.47;1.00;;;9.50;84.00;;;;;;6158081;23;20001;-78
2024/01/23 07:35:37;;;;;;;5.47;1.30;;;9.50;84.10;;;;;;6158297;23;20009;-77
2024/01/23 07:38:03;;;;;;;5.25;1.23;;;9.50;84.00;;;;;;6184768;23;20427;-78
2024/01/23 07:40:28;;;;;;;4.63;1.15;;;9.50;84.00;;;;;;6158048;23;20008;-78
2024/01/23 07:42:54;;;;;;;5.22;1.10;;;9.50;84.10;;;;;;6184312;23;20017;-79
2024/01/23 07:45:19;;;;;;;7.60;1.38;;;9.50;84.10;;;;;;6185285;23;19997;-78
2024/01/23 07:47:45;;;;;;;5.25;1.23;;;9.50;84.00;;;;;;6158615;23;20012;-78
2024/01/23 07:50:12;;;;;;;5.00;1.10;;;9.50;84.00;;;;;;6157788;23;20453;-78
2024/01/23 07:52:37;;;;;;;5.53;0.90;;;9.50;84.00;;;;;;6157799;23;20078;-78
2024/01/23 07:55:03;;;;;;;6.57;1.33;;;9.50;84.10;;;;;;6157949;23;20566;-78
2024/01/23 07:57:29;;;;;;;4.90;1.20;;;9.50;84.00;;;;;;6157881;23;20005;-78
2024/01/23 07:59:54;;;;;;;4.18;1.30;;;9.50;84.00;;;;;;6157879;23;20336;-78
2024/01/23 08:02:20;;;;;;;4.30;0.95;;;9.50;84.10;;;;;;6157953;23;19997;-78
2024/01/23 08:04:45;;;;;;;5.65;0.82;;;9.50;84.00;;;;;;6183906;23;20071;-78
2024/01/23 08:07:11;;;;;;;3.78;0.95;;;9.50;84.00;;;;;;6183655;23;20020;-78
2024/01/23 08:09:36;;;;;;;5.22;1.10;;;9.50;84.00;;;;;;6156986;23;20029;-78
2024/01/23 08:12:02;;;;;;;4.80;1.08;;;9.50;84.00;;;;;;6184011;23;20428;-78
2024/01/23 08:14:27;;;;;;;6.68;1.08;;;9.50;84.00;;;;;;6157291;23;20005;-78
2024/01/23 08:16:53;;;;;;;3.80;1.08;;;9.50;84.00;;;;;;6156744;23;20001;-78
2024/01/23 08:19:18;;;;;;;3.72;1.15;;;9.50;84.00;;;;;;6157828;23;20000;-78
2024/01/23 08:21:45;;;;;;;3.55;1.10;;;9.50;84.00;;;;;;6183363;23;20495;-78
2024/01/23 08:24:11;;;;;;;5.68;1.27;;;9.50;84.00;;;;;;6157975;23;20015;-78
2024/01/23 08:26:36;;;;;;;5.97;1.80;;;9.50;84.00;;;;;;6159501;23;20037;-78
2024/01/23 08:29:02;;;;;;;3.53;1.05;;;9.50;84.00;;;;;;6159967;23;20318;-79
2024/01/23 08:31:29;;;;;;;3.10;0.93;;;9.50;84.00;;;;;;6159577;23;20001;-78
2024/01/23 08:33:54;;;;;;;4.97;1.17;;;9.50;84.00;;;;;;6159456;23;20020;-78
2024/01/23 08:36:20;;;;;;;3.88;1.15;;;9.50;84.00;;;;;;6158936;23;20008;-78
2024/01/23 08:38:45;;;;;;;4.53;1.10;;;9.50;84.00;;;;;;6159237;23;20032;-78
2024/01/23 08:41:11;;;;;;;3.10;0.95;;;9.50;84.00;;;;;;6159262;23;20352;-78
2024/01/23 08:43:36;;;;;;;4.97;1.40;;;9.50;84.00;;;;;;6159214;23;20008;-79
2024/01/23 08:46:03;;;;;;;4.88;1.40;;;9.50;84.00;;;;;;6185518;23;20005;-78
2024/01/23 08:48:29;;;;;;;5.18;1.20;;;9.50;84.00;;;;;;6159285;23;20075;-78
2024/01/23 08:50:54;;;;;;;3.97;1.02;;;9.50;84.00;;;;;;6159229;23;20005;-78
2024/01/23 08:53:20;;;;;;;6.85;1.33;;;9.50;84.00;;;;;;6159264;23;20015;-79
2024/01/23 08:55:46;;;;;;;4.60;1.20;;;9.50;84.00;;;;;;6185411;23;20005;-78
2024/01/23 08:58:14;;;;;;;3.17;1.10;;;9.50;84.00;;;;;;6158982;23;20069;-78
2024/01/23 09:00:40;;;;;;;2.63;0.93;;;9.60;84.00;;;;;;6186038;23;20005;-78
2024/01/23 09:03:05;;;;;;;3.22;1.00;;;9.50;83.90;;;;;;6160481;23;20001;-78
2024/01/23 09:05:31;;;;;;;5.05;1.38;;;9.50;84.00;;;;;;6160633;23;20025;-78
2024/01/23 09:07:57;;;;;;;4.90;1.20;;;9.50;83.90;;;;;;6185216;23;20333;-78
2024/01/23 09:10:22;;;;;;;4.15;1.40;;;9.50;84.00;;;;;;6159113;23;20401;-78
2024/01/23 09:12:48;;;;;;;5.32;1.30;;;9.50;83.90;;;;;;6158696;23;20005;-78
2024/01/23 09:15:13;;;;;;;3.28;0.90;;;9.60;84.00;;;;;;6159557;23;20007;-78
2024/01/23 09:17:40;;;;;;;4.68;1.05;;;9.60;84.00;;;;;;6158728;23;20012;-78
2024/01/23 09:20:06;;;;;;;5.85;1.20;;;9.50;83.90;;;;;;6159073;23;20015;-77
2024/01/23 09:22:31;;;;;;;2.75;0.90;;;9.60;84.00;;;;;;6159234;23;20001;-78
2024/01/23 09:24:59;;;;;;;4.55;0.93;;;9.50;83.90;;;;;;6185852;23;20103;-78
2024/01/23 09:27:25;;;;;;;4.35;1.30;;;9.60;84.00;;;;;;6158709;23;20019;-78
2024/01/23 09:29:50;;;;;;;5.45;1.15;;;9.50;83.90;;;;;;6159139;23;20413;-78
2024/01/23 09:32:16;;;;;;;3.05;0.90;;;9.60;84.00;;;;;;6159073;23;20011;-79
2024/01/23 09:34:41;;;;;;;4.85;1.10;;;9.50;83.90;;;;;;6158958;23;20055;-78
2024/01/23 09:37:07;;;;;;;4.82;1.23;;;9.60;84.00;;;;;;6158016;23;20005;-78
2024/01/23 09:39:32;;;;;;;5.00;0.93;;;9.50;83.90;;;;;;6158940;23;20009;-78
2024/01/23 09:42:00;;;;;;;4.53;1.10;;;9.50;83.90;;;;;;6158921;23;20135;-78
2024/01/23 09:44:26;;;;;;;6.57;1.38;;;9.60;84.00;;;;;;6158834;23;20014;-78
2024/01/23 09:46:53;;;;;;;4.07;1.20;;;9.60;84.00;;;;;;6185133;23;20005;-78
2024/01/23 09:49:20;;;;;;;4.88;1.20;;;9.60;84.00;;;;;;6159084;23;20013;-78
2024/01/23 09:51:47;;;;;;;2.88;0.98;;;9.50;83.90;;;;;;6158955;23;20009;-78
2024/01/23 09:54:14;;;;;;;5.05;1.13;;;9.60;83.90;;;;;;6158641;23;20016;-78
2024/01/23 09:56:39;;;;;;;3.67;0.98;;;9.60;83.90;;;;;;6184928;23;20001;-78
2024/01/23 09:59:06;;;;;;;6.53;1.10;;;9.60;83.90;;;;;;6185360;23;20133;-78
2024/01/23 10:01:33;;;;;;;5.18;1.27;;;9.60;83.90;;;;;;6185201;23;20029;-78
2024/01/23 10:04:02;;;;;;;3.03;1.00;;;9.60;83.80;;;;;;6158185;23;20009;-78
2024/01/23 10:06:27;;;;;;;2.88;0.90;;;9.60;83.80;;;;;;6157878;23;20017;-78
2024/01/23 10:08:53;;;;;;;3.63;1.00;;;9.60;83.70;;;;;;6158706;23;20092;-78
2024/01/23 10:11:18;;;;;;;4.40;0.90;;;9.60;83.70;;;;;;6158628;23;20062;-78
2024/01/23 10:13:46;;;;;;;3.35;1.02;;;9.60;83.70;;;;;;6185008;23;20013;-78
2024/01/23 10:16:11;;;;;;;3.30;0.90;;;9.60;83.60;;;;;;6158323;23;20067;-78
2024/01/23 10:18:37;;;;;;;3.80;0.98;;;9.60;83.60;;;;;;6185032;23;20001;-80
2024/01/23 10:21:03;;;;;;;5.07;1.00;;;9.60;83.60;;;;;;6184645;23;20021;-78
2024/01/23 10:23:29;;;;;;;3.15;0.90;;;9.70;83.60;;;;;;6157887;23;20005;-78
2024/01/23 10:25:58;;;;;;;3.83;1.00;;;9.60;83.60;;;;;;6158153;23;20095;-78
2024/01/23 10:28:24;;;;;;;3.80;1.00;;;9.60;83.60;;;;;;6158745;23;20032;-78
2024/01/23 10:30:49;;;;;;;3.35;0.98;;;9.60;83.50;;;;;;6158278;23;20425;-78
2024/01/23 10:33:15;;;;;;;4.43;1.00;;;9.60;83.50;;;;;;6158119;23;20009;-78
2024/01/23 10:35:42;;;;;;;2.30;0.80;;;9.70;83.60;;;;;;6158130;23;20345;-78
2024/01/23 10:38:13;;;;;;;3.28;0.93;;;9.60;83.50;;;;;;6158327;23;20004;-80
2024/01/23 10:40:38;;;;;;;4.88;1.20;;;9.60;83.50;;;;;;6185063;23;20052;-78
2024/01/23 10:43:06;;;;;;;3.25;0.80;;;9.60;83.50;;;;;;6158226;23;20013;-78
2024/01/23 10:45:32;;;;;;;3.45;0.80;;;9.60;83.50;;;;;;6158286;23;20092;-78
2024/01/23 10:47:59;;;;;;;2.55;0.90;;;9.70;83.70;;;;;;6158065;23;20083;-78
2024/01/23 10:50:25;;;;;;;3.53;0.95;;;9.60;83.60;;;;;;6158076;23;20013;-78
2024/01/23 10:52:53;;;;;;;3.28;0.93;;;9.60;83.60;;;;;;6158016;23;20016;-78
2024/01/23 10:55:21;;;;;;;3.72;0.95;;;9.60;83.60;;;;;;6157979;23;20321;-78
2024/01/23 10:57:48;;;;;;;4.60;1.00;;;9.60;83.60;;;;;;6184288;23;20344;-78
2024/01/23 11:00:17;;;;;;;4.38;1.35;;;9.50;83.50;;;;;;6184351;23;19997;-78
2024/01/23 11:03:05;;;;;;;4.13;1.00;;;9.60;83.60;;;;;;6157991;23;20112;-78
2024/01/23 11:05:55;;;;;;;3.45;1.25;;;9.60;83.60;;;;;;6158057;23;20073;-78
2024/01/23 11:08:26;;;;;;;3.45;0.93;;;9.60;83.60;;;;;;6157897;23;20043;-78
2024/01/23 11:10:57;;;;;;;2.35;0.90;;;9.60;83.60;;;;;;6158074;23;20468;-78
2024/01/23 11:13:38;;;;;;;4.65;1.17;;;9.70;83.60;;;;;;6158572;23;20083;-77
2024/01/23 11:16:06;;;;;;;3.28;1.00;;;9.60;83.60;;;;;;6157803;23;20016;-78
2024/01/23 11:18:33;;;;;;;7.00;1.48;;;9.60;83.60;;;;;;6158780;23;20011;-78
2024/01/23 11:21:05;;;;;;;5.40;1.20;;;9.60;83.60;;;;;;6157693;23;20005;-78
2024/01/23 11:23:31;;;;;;;4.18;1.02;;;9.70;83.70;;;;;;6157815;23;19997;-78
2024/01/23 11:26:19;;;;;;;3.75;0.90;;;9.60;83.60;;;;;;6157737;23;20005;-78
2024/01/23 11:28:47;;;;;;;3.78;1.00;;;9.60;83.60;;;;;;6157893;23;20004;-78
2024/01/23 11:31:20;;;;;;;4.53;1.23;;;9.70;83.70;;;;;;6158203;23;20001;-80
2024/01/23 11:33:46;;;;;;;3.28;1.08;;;9.60;83.60;;;;;;6157771;23;20001;-78
2024/01/23 11:36:13;;;;;;;3.40;1.08;;;9.60;83.60;;;;;;6157735;23;20005;-79
2024/01/23 11:38:42;;;;;;;3.30;1.00;;;9.70;83.60;;;;;;6158050;23;20325;-78
2024/01/23 11:41:22;;;;;;;3.42;1.00;;;9.60;83.60;;;;;;6158382;23;20347;-78
2024/01/23 11:44:04;;;;;;;3.63;0.90;;;9.70;83.70;;;;;;6158080;23;20001;-78
2024/01/23 11:46:33;;;;;;;2.78;1.05;;;9.70;83.60;;;;;;6157790;23;20483;-79
2024/01/23 11:48:59;;;;;;;2.53;0.75;;;9.70;83.60;;;;;;6157995;23;20016;-78
2024/01/23 11:51:28;;;;;;;2.63;1.00;;;9.70;83.60;;;;;;6157954;23;20009;-79
2024/01/23 11:54:00;;;;;;;3.42;1.00;;;9.70;83.60;;;;;;6157586;23;20005;-80
2024/01/23 11:56:29;;;;;;;3.05;1.00;;;9.70;83.60;;;;;;6157823;23;20009;-78
2024/01/23 11:58:58;;;;;;;3.53;1.00;;;9.60;83.50;;;;;;6157690;23;20028;-78
2024/01/23 12:01:27;;;;;;;3.28;0.82;;;9.70;83.60;;;;;;6157951;23;20636;-79
2024/01/23 12:03:53;;;;;;;3.85;1.00;;;9.70;83.60;;;;;;6184191;23;20004;-78
2024/01/23 12:06:19;;;;;;;5.03;1.23;;;9.70;83.60;;;;;;6183872;23;20017;-78
2024/01/23 12:08:45;;;;;;;3.58;1.00;;;9.70;83.50;;;;;;6158388;23;20511;-78
2024/01/23 12:11:13;;;;;;;3.72;0.90;;;9.70;83.50;;;;;;6158667;23;20013;-80
2024/01/23 12:13:38;;;;;;;3.90;0.93;;;9.60;83.40;;;;;;6158501;23;20005;-78
2024/01/23 12:16:10;;;;;;;5.28;0.90;;;9.70;83.50;;;;;;6157852;23;20020;-78
2024/01/23 12:18:35;;;;;;;3.28;0.95;;;9.70;83.50;;;;;;6157950;23;20008;-78
2024/01/23 12:21:03;;;;;;;3.47;0.95;;;9.70;83.50;;;;;;6157302;23;20603;-78
2024/01/23 12:23:29;;;;;;;2.80;0.70;;;9.70;83.50;;;;;;6157954;23;20318;-78
2024/01/23 12:25:55;;;;;;;3.65;1.00;;;9.70;83.50;;;;;;6157841;23;20005;-78
2024/01/23 12:28:20;;;;;;;3.75;1.10;;;9.70;83.50;;;;;;6184412;23;20060;-78
2024/01/23 12:30:46;;;;;;;3.20;1.05;;;9.70;83.50;;;;;;6158500;23;20392;-78
2024/01/23 12:33:17;;;;;;;4.50;1.00;;;9.70;83.50;;;;;;6157818;23;20033;-78
2024/01/23 12:35:44;;;;;;;5.50;1.10;;;9.70;83.40;;;;;;6157611;23;20096;-78
2024/01/23 12:38:19;;;;;;;2.75;0.90;;;9.70;83.40;;;;;;6157543;23;20016;-77
2024/01/23 12:40:45;;;;;;;3.03;1.15;;;9.70;83.40;;;;;;6157739;23;20013;-78
2024/01/23 12:43:12;;;;;;;2.75;0.95;;;9.70;83.90;;;;;;6157204;23;20009;-78
2024/01/23 12:45:38;;;;;;;3.15;1.02;;;9.70;83.40;;;;;;6157188;23;20005;-78
2024/01/23 12:48:04;;;;;;;3.58;1.17;;;9.70;83.40;;;;;;6157313;23;20040;-78
2024/01/23 12:50:30;;;;;;;3.80;1.10;;;9.70;83.50;;;;;;6157365;23;20694;-80
2024/01/23 12:52:59;;;;;;;3.03;1.10;;;9.70;83.90;;;;;;6183598;23;20047;-78